This is the latest recevied weather packets stored in our database for station/object OE6ACM-10. If no packets are shown the sender has not sent any weather packets the latest 10 day(s).
| Time | Temp. | Humidity | Pressure | Rain* | Wind** | Luminosity | Snow |
|---|---|---|---|---|---|---|---|
| 1778079462 | 30.56° C | 100% | 917.5 hPa | - | - | - | - |
| 1778079162 | 31.11° C | 97% | 917.6 hPa | - | - | - | - |
| 1778078862 | 31.11° C | 100% | 917.6 hPa | - | - | - | - |
| 1778078562 | 31.11° C | 97% | 917.5 hPa | - | - | - | - |
| 1778078262 | 31.11° C | 95% | 917.7 hPa | - | - | - | - |
| 1778077962 | 31.11° C | 95% | 917.7 hPa | - | - | - | - |
| 1778077662 | 31.11° C | 94% | 917.6 hPa | - | - | - | - |
| 1778077362 | 31.11° C | 95% | 917.6 hPa | - | - | - | - |
| 1778077062 | 32.22° C | 92% | 917.7 hPa | - | - | - | - |
| 1778076762 | 32.22° C | 90% | 917.7 hPa | - | - | - | - |
| 1778076462 | 32.22° C | 86% | 917.7 hPa | - | - | - | - |
| 1778076162 | 32.22° C | 87% | 917.8 hPa | - | - | - | - |
| 1778075862 | 32.78° C | 84% | 917.8 hPa | - | - | - | - |
| 1778075562 | 33.33° C | 80% | 917.8 hPa | - | - | - | - |
| 1778075262 | 34.44° C | 76% | 917.8 hPa | - | - | - | - |
| 1778074962 | 35.56° C | 72% | 917.8 hPa | - | - | - | - |
| 1778074662 | 34.44° C | 76% | 918 hPa | - | - | - | - |
| 1778074362 | 34.44° C | 77% | 918 hPa | - | - | - | - |
| 1778074062 | 35° C | 75% | 917.9 hPa | - | - | - | - |
| 1778073762 | 34.44° C | 78% | 918 hPa | - | - | - | - |
| 1778073462 | 33.33° C | 86% | 918.1 hPa | - | - | - | - |
| 1778073162 | 32.78° C | 84% | 918.2 hPa | - | - | - | - |
| 1778072862 | 33.33° C | 80% | 918 hPa | - | - | - | - |
| 1778072562 | 33.33° C | 80% | 918.2 hPa | - | - | - | - |
| 1778072262 | 34.44° C | 75% | 918.2 hPa | - | - | - | - |
* Rain since midnight (hover to see other rain measurements)
** Current wind speed in m/s (hover to see current wind gust speed)